createdAt,value
2023-04-18T00:01:39.869Z,101260.00
2023-04-18T00:04:09.087Z,101258.00
2023-04-18T00:06:36.998Z,101251.00
2023-04-18T00:09:06.478Z,101255.00
2023-04-18T00:11:35.138Z,101251.00
2023-04-18T00:14:03.538Z,101257.00
2023-04-18T00:16:34.745Z,101255.00
2023-04-18T00:19:05.033Z,101257.00
2023-04-18T00:21:33.330Z,101258.00
2023-04-18T00:24:01.314Z,101250.00
2023-04-18T00:26:29.154Z,101252.00
2023-04-18T00:29:02.625Z,101254.00
2023-04-18T00:31:30.997Z,101255.00
2023-04-18T00:33:58.900Z,101253.00
2023-04-18T00:36:28.126Z,101259.00
2023-04-18T00:38:55.824Z,101249.00
2023-04-18T00:41:27.771Z,101246.00
2023-04-18T00:43:55.722Z,101252.00
2023-04-18T00:46:23.776Z,101252.00
2023-04-18T00:48:51.708Z,101247.00
2023-04-18T00:51:19.808Z,101247.00
2023-04-18T00:53:47.559Z,101249.00
2023-04-18T00:56:15.376Z,101251.00
2023-04-18T00:58:43.144Z,101252.00
2023-04-18T01:01:11.203Z,101250.00
2023-04-18T01:03:40.048Z,101248.00
2023-04-18T01:06:07.844Z,101246.00
2023-04-18T01:08:36.919Z,101242.00
2023-04-18T01:11:04.966Z,101241.00
2023-04-18T01:13:32.872Z,101247.00
2023-04-18T01:16:01.034Z,101254.00
2023-04-18T01:18:31.842Z,101252.00
2023-04-18T01:21:00.943Z,101248.00
2023-04-18T01:23:29.476Z,101250.00
2023-04-18T01:25:57.756Z,101247.00
2023-04-18T01:28:27.981Z,101247.00
2023-04-18T01:30:57.079Z,101248.00
2023-04-18T01:33:24.715Z,101242.00
2023-04-18T01:35:52.463Z,101243.00
2023-04-18T01:38:20.172Z,101232.00
2023-04-18T01:40:49.728Z,101244.00
2023-04-18T01:43:17.677Z,101237.00
2023-04-18T01:45:45.446Z,101239.00
2023-04-18T01:48:13.653Z,101235.00
2023-04-18T01:50:43.032Z,101235.00
2023-04-18T01:53:12.117Z,101231.00
2023-04-18T01:55:40.118Z,101235.00
2023-04-18T01:58:08.410Z,101228.00
2023-04-18T02:00:37.734Z,101230.00
2023-04-18T02:03:06.637Z,101229.00
2023-04-18T02:05:36.868Z,101222.00
2023-04-18T02:08:05.000Z,101226.00
2023-04-18T02:10:32.790Z,101220.00
2023-04-18T02:13:00.240Z,101222.00
2023-04-18T02:15:29.233Z,101226.00
2023-04-18T02:17:57.344Z,101232.00
2023-04-18T02:20:26.595Z,101227.00
2023-04-18T02:22:54.678Z,101226.00
2023-04-18T02:25:24.374Z,101226.00
2023-04-18T02:27:52.079Z,101227.00
2023-04-18T02:30:20.208Z,101226.00
2023-04-18T02:32:52.287Z,101232.00
2023-04-18T02:35:21.607Z,101224.00
2023-04-18T02:37:49.935Z,101234.00
2023-04-18T02:40:19.296Z,101232.00
2023-04-18T02:42:47.060Z,101235.00
2023-04-18T02:45:16.220Z,101227.00
2023-04-18T02:47:54.277Z,101226.00
2023-04-18T02:50:24.290Z,101232.00
2023-04-18T02:52:53.296Z,101230.00
2023-04-18T02:55:23.011Z,101233.00
2023-04-18T02:57:53.309Z,101231.00
2023-04-18T03:00:56.927Z,101232.00
2023-04-18T03:03:50.716Z,101237.00
2023-04-18T03:06:34.332Z,101232.00
2023-04-18T03:09:04.686Z,101233.00
2023-04-18T03:11:35.801Z,101242.00
2023-04-18T03:14:04.048Z,101238.00
2023-04-18T03:16:41.252Z,101242.00
2023-04-18T03:19:12.202Z,101234.00
2023-04-18T03:21:40.116Z,101235.00
2023-04-18T03:24:09.663Z,101235.00
2023-04-18T03:26:38.676Z,101236.00
2023-04-18T03:29:06.737Z,101242.00
2023-04-18T03:31:34.591Z,101240.00
2023-04-18T03:34:02.416Z,101248.00
2023-04-18T03:36:31.616Z,101243.00
2023-04-18T03:39:00.414Z,101240.00
2023-04-18T03:41:28.678Z,101249.00
2023-04-18T03:43:58.180Z,101243.00
2023-04-18T03:46:26.300Z,101245.00
2023-04-18T03:48:56.969Z,101240.00
2023-04-18T03:51:24.878Z,101244.00
2023-04-18T03:53:53.614Z,101248.00
2023-04-18T03:56:21.705Z,101248.00
2023-04-18T03:58:56.968Z,101249.00
2023-04-18T04:05:06.113Z,101252.00
2023-04-18T04:07:35.255Z,101247.00
2023-04-18T04:10:03.012Z,101253.00
2023-04-18T04:12:31.161Z,101253.00
2023-04-18T04:14:59.312Z,101256.00
2023-04-18T04:17:27.607Z,101260.00
2023-04-18T04:19:55.334Z,101260.00
2023-04-18T04:22:23.605Z,101262.00
2023-04-18T04:24:52.932Z,101268.00
2023-04-18T04:27:27.696Z,101271.00
2023-04-18T04:29:57.101Z,101265.00
2023-04-18T04:32:25.551Z,101273.00
2023-04-18T04:34:56.914Z,101278.00
2023-04-18T04:37:27.234Z,101282.00
2023-04-18T04:40:09.460Z,101281.00
2023-04-18T04:43:00.162Z,101277.00
2023-04-18T04:45:37.257Z,101282.00
2023-04-18T04:48:06.151Z,101284.00
2023-04-18T04:50:39.199Z,101282.00
2023-04-18T04:53:09.812Z,101283.00
2023-04-18T04:55:38.809Z,101283.00
2023-04-18T04:58:06.598Z,101284.00
2023-04-18T05:00:56.827Z,101289.00
2023-04-18T05:03:25.050Z,101292.00
2023-04-18T05:05:53.978Z,101296.00
2023-04-18T05:08:21.677Z,101299.00
2023-04-18T05:10:50.344Z,101302.00
2023-04-18T05:13:20.617Z,101302.00
2023-04-18T05:15:48.724Z,101304.00
2023-04-18T05:18:19.143Z,101306.00
2023-04-18T05:20:49.695Z,101306.00
2023-04-18T05:23:17.723Z,101305.00
2023-04-18T05:25:45.755Z,101311.00
2023-04-18T05:28:13.794Z,101310.00
2023-04-18T05:30:42.473Z,101310.00
2023-04-18T05:33:10.159Z,101321.00
2023-04-18T05:35:42.521Z,101312.00
2023-04-18T05:38:11.084Z,101313.00
2023-04-18T05:40:39.277Z,101310.00
2023-04-18T05:43:06.970Z,101318.00
2023-04-18T05:45:34.880Z,101323.00
2023-04-18T05:48:02.909Z,101319.00
2023-04-18T05:50:34.047Z,101327.00
2023-04-18T05:53:02.190Z,101322.00
2023-04-18T05:55:30.087Z,101332.00
2023-04-18T05:57:58.032Z,101330.00
2023-04-18T06:00:26.092Z,101339.00
2023-04-18T06:02:56.715Z,101338.00
2023-04-18T06:05:26.865Z,101346.00
2023-04-18T06:07:55.117Z,101344.00
2023-04-18T06:10:22.969Z,101342.00
2023-04-18T06:12:50.957Z,101346.00
2023-04-18T06:15:18.842Z,101340.00
2023-04-18T06:17:46.627Z,101338.00
2023-04-18T06:20:14.544Z,101346.00
2023-04-18T06:22:42.425Z,101351.00
2023-04-18T06:25:10.632Z,101347.00
2023-04-18T06:27:39.101Z,101351.00
2023-04-18T06:30:08.442Z,101348.00
2023-04-18T06:32:36.301Z,101357.00
2023-04-18T06:35:04.260Z,101355.00
2023-04-18T06:37:32.100Z,101348.00
2023-04-18T06:40:00.131Z,101351.00
2023-04-18T06:42:27.983Z,101362.00
2023-04-18T06:44:56.149Z,101357.00
2023-04-18T06:47:23.933Z,101362.00
2023-04-18T06:49:51.604Z,101368.00
2023-04-18T06:52:19.446Z,101370.00
2023-04-18T06:54:47.235Z,101363.00
2023-04-18T06:57:15.377Z,101374.00
2023-04-18T06:59:43.186Z,101372.00
2023-04-18T07:02:11.377Z,101371.00
2023-04-18T07:04:39.189Z,101379.00
2023-04-18T07:07:06.877Z,101385.00
2023-04-18T07:09:34.681Z,101383.00
2023-04-18T07:12:03.659Z,101386.00
2023-04-18T07:14:33.568Z,101383.00
2023-04-18T07:17:02.704Z,101376.00
2023-04-18T07:19:30.887Z,101375.00
2023-04-18T07:21:59.171Z,101377.00
2023-04-18T07:24:27.073Z,101379.00
2023-04-18T07:26:55.264Z,101386.00
2023-04-18T07:29:23.148Z,101386.00
2023-04-18T07:31:52.014Z,101383.00
2023-04-18T07:34:19.606Z,101385.00
2023-04-18T07:36:47.437Z,101387.00
2023-04-18T07:39:15.474Z,101387.00
2023-04-18T07:41:46.930Z,101386.00
2023-04-18T07:44:14.994Z,101386.00
2023-04-18T07:46:42.868Z,101385.00
2023-04-18T07:49:14.039Z,101380.00
2023-04-18T07:51:41.990Z,101386.00
2023-04-18T07:54:11.458Z,101382.00
2023-04-18T07:56:39.484Z,101385.00
2023-04-18T07:59:07.254Z,101381.00
2023-04-18T08:01:35.109Z,101386.00
2023-04-18T08:04:03.077Z,101395.00
2023-04-18T08:06:31.084Z,101384.00
2023-04-18T08:08:59.350Z,101386.00
2023-04-18T08:11:28.123Z,101392.00
2023-04-18T08:13:56.047Z,101392.00
2023-04-18T08:16:23.830Z,101394.00
2023-04-18T08:18:51.420Z,101391.00
2023-04-18T08:21:25.251Z,101399.00
2023-04-18T08:23:52.803Z,101390.00
2023-04-18T08:26:20.538Z,101397.00
2023-04-18T08:28:48.451Z,101392.00
2023-04-18T08:31:17.239Z,101402.00
2023-04-18T08:33:47.981Z,101400.00
2023-04-18T08:36:16.306Z,101404.00
2023-04-18T08:38:44.169Z,101407.00
2023-04-18T08:41:11.863Z,101412.00
2023-04-18T08:43:39.582Z,101402.00
2023-04-18T08:46:08.145Z,101402.00
2023-04-18T08:48:38.708Z,101407.00
2023-04-18T08:51:06.451Z,101403.00
2023-04-18T08:53:35.531Z,101403.00
2023-04-18T08:56:05.709Z,101402.00
2023-04-18T08:58:35.104Z,101403.00
2023-04-18T09:01:02.925Z,101407.00
2023-04-18T09:03:44.497Z,101407.00
2023-04-18T09:06:19.491Z,101410.00
2023-04-18T09:09:01.683Z,101409.00
2023-04-18T09:11:31.930Z,101408.00
2023-04-18T09:13:59.809Z,101409.00
2023-04-18T09:16:29.590Z,101414.00
2023-04-18T09:19:19.208Z,101416.00
2023-04-18T09:21:51.502Z,101414.00
2023-04-18T09:24:25.330Z,101414.00
2023-04-18T09:26:56.179Z,101412.00
2023-04-18T09:29:47.400Z,101413.00
2023-04-18T09:32:27.438Z,101413.00
2023-04-18T09:35:05.761Z,101412.00
2023-04-18T09:37:33.860Z,101406.00
2023-04-18T09:40:01.579Z,101410.00
2023-04-18T09:42:37.451Z,101405.00
2023-04-18T09:45:08.651Z,101404.00
2023-04-18T09:47:37.777Z,101404.00
2023-04-18T09:50:11.143Z,101405.00
2023-04-18T09:52:42.399Z,101403.00
2023-04-18T09:55:18.081Z,101417.00
2023-04-18T09:57:48.408Z,101407.00
2023-04-18T10:00:26.833Z,101410.00
2023-04-18T10:03:19.378Z,101406.00
2023-04-18T10:05:50.804Z,101402.00
2023-04-18T10:08:19.053Z,101410.00
2023-04-18T10:10:47.456Z,101413.00
2023-04-18T10:13:15.751Z,101410.00
2023-04-18T10:15:45.605Z,101400.00
2023-04-18T10:18:17.083Z,101398.00
2023-04-18T10:20:47.307Z,101401.00
2023-04-18T10:23:36.552Z,101409.00
2023-04-18T10:26:11.817Z,101412.00
2023-04-18T10:28:59.348Z,101409.00
2023-04-18T10:31:39.388Z,101412.00
2023-04-18T10:34:08.282Z,101414.00
2023-04-18T10:36:36.407Z,101417.00
2023-04-18T10:39:22.867Z,101412.00
2023-04-18T10:41:51.845Z,101413.00
2023-04-18T10:44:25.228Z,101409.00
2023-04-18T10:46:56.047Z,101417.00
2023-04-18T10:49:27.810Z,101417.00
2023-04-18T10:52:00.132Z,101424.00
2023-04-18T10:54:47.333Z,101419.00
2023-04-18T10:57:15.807Z,101419.00
2023-04-18T10:59:49.215Z,101425.00
2023-04-18T11:02:32.596Z,101420.00
2023-04-18T11:05:06.537Z,101421.00
2023-04-18T11:07:46.455Z,101432.00
2023-04-18T11:10:18.109Z,101427.00
2023-04-18T11:12:49.189Z,101428.00
2023-04-18T11:15:23.417Z,101425.00
2023-04-18T11:18:06.363Z,101431.00
2023-04-18T11:20:49.561Z,101431.00
2023-04-18T11:23:21.616Z,101431.00
2023-04-18T11:25:54.743Z,101424.00
2023-04-18T11:28:26.931Z,101422.00
2023-04-18T11:31:00.407Z,101424.00
2023-04-18T11:33:33.692Z,101413.00
2023-04-18T11:36:01.958Z,101417.00
2023-04-18T11:38:31.675Z,101414.00
2023-04-18T11:41:00.611Z,101416.00
2023-04-18T11:43:31.014Z,101423.00
2023-04-18T11:46:01.984Z,101413.00
2023-04-18T11:48:38.189Z,101417.00
2023-04-18T11:51:36.605Z,101404.00
2023-04-18T11:54:05.045Z,101420.00
2023-04-18T11:56:36.795Z,101422.00
2023-04-18T11:59:10.899Z,101425.00
2023-04-18T12:01:38.701Z,101424.00
2023-04-18T12:04:09.190Z,101416.00
2023-04-18T12:06:56.913Z,101422.00
2023-04-18T12:09:27.250Z,101420.00
2023-04-18T12:12:03.121Z,101428.00
2023-04-18T12:14:31.453Z,101429.00
2023-04-18T12:16:59.283Z,101416.00
2023-04-18T12:19:28.720Z,101421.00
2023-04-18T12:22:03.336Z,101416.00
2023-04-18T12:24:32.362Z,101419.00
2023-04-18T12:27:00.846Z,101418.00
2023-04-18T12:29:37.251Z,101413.00
2023-04-18T12:32:05.200Z,101412.00
2023-04-18T12:34:32.825Z,101419.00
2023-04-18T12:37:00.717Z,101417.00
2023-04-18T12:39:28.454Z,101415.00
2023-04-18T12:41:56.584Z,101409.00
2023-04-18T12:44:27.657Z,101414.00
2023-04-18T12:46:55.572Z,101408.00
2023-04-18T12:49:23.195Z,101402.00
2023-04-18T12:51:53.619Z,101390.00
2023-04-18T12:54:21.326Z,101386.00
2023-04-18T12:56:48.905Z,101385.00
2023-04-18T12:59:16.556Z,101388.00
2023-04-18T13:01:44.393Z,101391.00
2023-04-18T13:04:13.305Z,101384.00
2023-04-18T13:06:41.226Z,101380.00
2023-04-18T13:09:09.672Z,101380.00
2023-04-18T13:11:37.303Z,101378.00
2023-04-18T13:14:07.286Z,101373.00
2023-04-18T13:16:35.039Z,101370.00
2023-04-18T13:19:02.678Z,101372.00
2023-04-18T13:21:31.527Z,101367.00
2023-04-18T13:23:59.212Z,101368.00
2023-04-18T13:26:27.660Z,101373.00
2023-04-18T13:28:55.905Z,101373.00
2023-04-18T13:31:24.099Z,101369.00
2023-04-18T13:33:52.048Z,101368.00
2023-04-18T13:36:19.692Z,101366.00
2023-04-18T13:38:48.123Z,101356.00
2023-04-18T13:41:15.798Z,101363.00
2023-04-18T13:43:45.228Z,101363.00
2023-04-18T13:46:13.301Z,101360.00
2023-04-18T13:48:42.170Z,101366.00
2023-04-18T13:51:10.084Z,101363.00
2023-04-18T13:53:37.926Z,101362.00
2023-04-18T13:56:06.196Z,101362.00
2023-04-18T13:58:33.823Z,101356.00
2023-04-18T14:01:01.947Z,101355.00
2023-04-18T14:03:30.316Z,101345.00
2023-04-18T14:05:59.892Z,101358.00
2023-04-18T14:08:27.543Z,101357.00
2023-04-18T14:10:55.482Z,101351.00
2023-04-18T14:13:23.717Z,101351.00
2023-04-18T14:15:54.039Z,101357.00
2023-04-18T14:18:22.068Z,101352.00
2023-04-18T14:20:49.700Z,101358.00
2023-04-18T14:23:17.608Z,101349.00
2023-04-18T14:25:45.310Z,101352.00
2023-04-18T14:28:15.007Z,101348.00
2023-04-18T14:30:42.934Z,101349.00
2023-04-18T14:33:11.508Z,101352.00
2023-04-18T14:35:39.515Z,101345.00
2023-04-18T14:38:07.269Z,101347.00
2023-04-18T14:40:37.696Z,101343.00
2023-04-18T14:43:06.468Z,101340.00
2023-04-18T14:45:35.078Z,101342.00
2023-04-18T14:48:02.989Z,101342.00
2023-04-18T14:50:34.618Z,101345.00
2023-04-18T14:53:03.597Z,101344.00
2023-04-18T14:55:32.195Z,101346.00
2023-04-18T14:57:59.834Z,101338.00
2023-04-18T15:00:27.720Z,101339.00
2023-04-18T15:02:58.302Z,101343.00
2023-04-18T15:05:26.762Z,101337.00
2023-04-18T15:07:54.516Z,101332.00
2023-04-18T15:10:22.847Z,101343.00
2023-04-18T15:12:51.465Z,101331.00
2023-04-18T15:15:20.289Z,101340.00
2023-04-18T15:17:48.080Z,101335.00
2023-04-18T15:20:16.623Z,101336.00
2023-04-18T15:22:44.733Z,101331.00
2023-04-18T15:25:16.581Z,101335.00
2023-04-18T15:27:44.361Z,101335.00
2023-04-18T15:30:12.552Z,101332.00
2023-04-18T15:32:42.421Z,101328.00
2023-04-18T15:35:11.355Z,101336.00
2023-04-18T15:37:39.183Z,101327.00
2023-04-18T15:40:10.678Z,101338.00
2023-04-18T15:42:39.881Z,101333.00
2023-04-18T15:45:08.213Z,101333.00
2023-04-18T15:47:35.870Z,101340.00
2023-04-18T15:50:03.958Z,101337.00
2023-04-18T15:52:31.658Z,101333.00
2023-04-18T15:54:59.441Z,101335.00
2023-04-18T15:57:29.804Z,101337.00
2023-04-18T15:59:58.761Z,101333.00
2023-04-18T16:02:30.020Z,101337.00
2023-04-18T16:05:00.312Z,101326.00
2023-04-18T16:07:29.507Z,101338.00
2023-04-18T16:09:59.635Z,101344.00
2023-04-18T16:12:27.412Z,101332.00
2023-04-18T16:14:55.254Z,101334.00
2023-04-18T16:17:25.299Z,101335.00
2023-04-18T16:19:52.971Z,101330.00
2023-04-18T16:22:21.072Z,101346.00
2023-04-18T16:24:51.706Z,101337.00
2023-04-18T16:27:19.260Z,101338.00
2023-04-18T16:29:49.958Z,101339.00
2023-04-18T16:32:17.860Z,101327.00
2023-04-18T16:34:45.796Z,101339.00
2023-04-18T16:37:13.603Z,101339.00
2023-04-18T16:39:44.058Z,101339.00
2023-04-18T16:42:13.317Z,101341.00
2023-04-18T16:44:45.606Z,101334.00
2023-04-18T16:47:13.360Z,101330.00
2023-04-18T16:49:41.930Z,101332.00
2023-04-18T16:52:09.665Z,101333.00
2023-04-18T16:54:39.752Z,101330.00
2023-04-18T16:57:08.088Z,101343.00
2023-04-18T16:59:35.905Z,101341.00
2023-04-18T17:02:03.755Z,101333.00
2023-04-18T17:04:32.179Z,101335.00
2023-04-18T17:07:00.987Z,101336.00
2023-04-18T17:09:28.744Z,101339.00
2023-04-18T17:11:58.264Z,101340.00
2023-04-18T17:14:26.578Z,101343.00
2023-04-18T17:16:54.374Z,101339.00
2023-04-18T17:19:23.369Z,101342.00
2023-04-18T17:21:51.353Z,101342.00
2023-04-18T17:24:22.706Z,101334.00
2023-04-18T17:26:53.629Z,101339.00
2023-04-18T17:29:23.049Z,101339.00
2023-04-18T17:31:51.991Z,101339.00
2023-04-18T17:34:19.922Z,101341.00
2023-04-18T17:36:47.998Z,101344.00
2023-04-18T17:39:17.281Z,101335.00
2023-04-18T17:41:46.306Z,101336.00
2023-04-18T17:44:14.179Z,101339.00
2023-04-18T17:46:41.710Z,101341.00
2023-04-18T17:49:12.960Z,101342.00
2023-04-18T17:51:41.047Z,101342.00
2023-04-18T17:54:13.884Z,101339.00
2023-04-18T17:56:41.598Z,101337.00
2023-04-18T17:59:10.119Z,101336.00
2023-04-18T18:01:38.760Z,101340.00
2023-04-18T18:04:06.671Z,101335.00
2023-04-18T18:06:34.821Z,101336.00
2023-04-18T18:09:05.657Z,101342.00
2023-04-18T18:11:33.529Z,101333.00
2023-04-18T18:14:01.217Z,101337.00
2023-04-18T18:16:29.098Z,101337.00
2023-04-18T18:18:59.817Z,101343.00
2023-04-18T18:21:28.894Z,101337.00
2023-04-18T18:23:58.936Z,101346.00
2023-04-18T18:26:26.830Z,101336.00
2023-04-18T18:28:56.021Z,101345.00
2023-04-18T18:31:26.918Z,101342.00
2023-04-18T18:33:54.724Z,101342.00
2023-04-18T18:36:22.390Z,101343.00
2023-04-18T18:38:50.163Z,101349.00
2023-04-18T18:41:17.783Z,101362.00
2023-04-18T18:43:45.927Z,101362.00
2023-04-18T18:46:18.722Z,101359.00
2023-04-18T18:48:49.752Z,101363.00
2023-04-18T18:51:19.447Z,101362.00
2023-04-18T18:53:47.433Z,101363.00
2023-04-18T18:56:15.106Z,101365.00
2023-04-18T18:58:45.623Z,101365.00
2023-04-18T19:01:13.413Z,101364.00
2023-04-18T19:03:41.384Z,101377.00
2023-04-18T19:06:09.117Z,101371.00
2023-04-18T19:08:39.460Z,101368.00
2023-04-18T19:11:07.364Z,101368.00
2023-04-18T19:13:37.972Z,101377.00
2023-04-18T19:16:06.181Z,101376.00
2023-04-18T19:18:34.095Z,101373.00
2023-04-18T19:21:03.326Z,101379.00
2023-04-18T19:23:31.371Z,101388.00
2023-04-18T19:26:02.242Z,101385.00
2023-04-18T19:28:30.162Z,101384.00
2023-04-18T19:30:58.215Z,101386.00
2023-04-18T19:33:26.838Z,101387.00
2023-04-18T19:35:55.142Z,101381.00
2023-04-18T19:38:22.828Z,101382.00
2023-04-18T19:40:50.956Z,101388.00
2023-04-18T19:43:21.099Z,101386.00
2023-04-18T19:45:50.118Z,101390.00
2023-04-18T19:48:19.909Z,101384.00
2023-04-18T19:50:50.034Z,101387.00
2023-04-18T19:53:19.354Z,101393.00
2023-04-18T19:55:50.319Z,101392.00
2023-04-18T19:58:45.445Z,101394.00
2023-04-18T20:01:21.457Z,101393.00
2023-04-18T20:03:49.359Z,101387.00
2023-04-18T20:06:18.233Z,101387.00
2023-04-18T20:08:46.464Z,101394.00
2023-04-18T20:11:18.594Z,101393.00
2023-04-18T20:13:46.452Z,101393.00
2023-04-18T20:16:16.637Z,101396.00
2023-04-18T20:18:47.596Z,101402.00
2023-04-18T20:21:15.753Z,101401.00
2023-04-18T20:23:45.467Z,101390.00
2023-04-18T20:26:14.061Z,101404.00
2023-04-18T20:28:44.620Z,101403.00
2023-04-18T20:31:12.951Z,101414.00
2023-04-18T20:33:40.661Z,101414.00
2023-04-18T20:36:09.595Z,101415.00
2023-04-18T20:38:38.238Z,101417.00
2023-04-18T20:41:06.660Z,101424.00
2023-04-18T20:43:37.567Z,101423.00
2023-04-18T20:46:05.985Z,101416.00
2023-04-18T20:48:34.382Z,101419.00
2023-04-18T20:51:02.431Z,101415.00
2023-04-18T20:53:30.912Z,101421.00
2023-04-18T20:56:01.930Z,101428.00
2023-04-18T20:58:30.595Z,101417.00
2023-04-18T21:01:01.233Z,101417.00
2023-04-18T21:03:32.535Z,101421.00
2023-04-18T21:06:00.845Z,101424.00
2023-04-18T21:08:28.715Z,101423.00
2023-04-18T21:10:56.765Z,101429.00
2023-04-18T21:13:24.706Z,101429.00
2023-04-18T21:15:52.700Z,101434.00
2023-04-18T21:18:20.354Z,101430.00
2023-04-18T21:20:50.671Z,101430.00
2023-04-18T21:23:18.306Z,101435.00
2023-04-18T21:25:46.008Z,101430.00
2023-04-18T21:28:13.643Z,101420.00
2023-04-18T21:30:41.368Z,101433.00
2023-04-18T21:33:09.391Z,101438.00
2023-04-18T21:35:37.837Z,101431.00
2023-04-18T21:38:05.985Z,101423.00
2023-04-18T21:40:33.925Z,101422.00
2023-04-18T21:43:01.736Z,101423.00
2023-04-18T21:45:29.864Z,101420.00
2023-04-18T21:47:57.863Z,101423.00
2023-04-18T21:50:25.934Z,101422.00
2023-04-18T21:52:53.937Z,101416.00
2023-04-18T21:55:21.752Z,101424.00
2023-04-18T21:57:50.652Z,101424.00
2023-04-18T22:00:19.344Z,101422.00
2023-04-18T22:02:50.609Z,101414.00
2023-04-18T22:05:18.509Z,101417.00
2023-04-18T22:07:57.610Z,101420.00
2023-04-18T22:10:26.393Z,101419.00
2023-04-18T22:12:54.724Z,101417.00
2023-04-18T22:15:24.208Z,101413.00
2023-04-18T22:17:52.074Z,101421.00
2023-04-18T22:20:19.828Z,101420.00
2023-04-18T22:22:47.932Z,101420.00
2023-04-18T22:25:15.888Z,101420.00
2023-04-18T22:27:45.726Z,101417.00
2023-04-18T22:30:14.324Z,101411.00
2023-04-18T22:32:42.253Z,101416.00
2023-04-18T22:35:10.553Z,101417.00
2023-04-18T22:37:38.651Z,101418.00
2023-04-18T22:40:07.396Z,101417.00
2023-04-18T22:42:37.271Z,101411.00
2023-04-18T22:45:07.683Z,101422.00
2023-04-18T22:47:35.450Z,101420.00
2023-04-18T22:50:03.220Z,101416.00
2023-04-18T22:52:31.067Z,101428.00
2023-04-18T22:54:58.743Z,101425.00
2023-04-18T22:57:29.469Z,101421.00
2023-04-18T22:59:57.960Z,101421.00
2023-04-18T23:02:25.826Z,101431.00
2023-04-18T23:04:53.477Z,101425.00
2023-04-18T23:07:21.318Z,101417.00
2023-04-18T23:09:49.164Z,101412.00
2023-04-18T23:12:16.793Z,101424.00
2023-04-18T23:14:44.465Z,101416.00
2023-04-18T23:17:12.191Z,101412.00
2023-04-18T23:19:42.702Z,101421.00
2023-04-18T23:22:10.806Z,101410.00
2023-04-18T23:24:38.410Z,101410.00
2023-04-18T23:27:06.342Z,101410.00
2023-04-18T23:29:39.417Z,101398.00
2023-04-18T23:32:07.138Z,101403.00
2023-04-18T23:34:35.087Z,101403.00
2023-04-18T23:37:02.668Z,101395.00
2023-04-18T23:39:30.572Z,101398.00
2023-04-18T23:41:58.823Z,101400.00
2023-04-18T23:44:26.502Z,101397.00
2023-04-18T23:46:54.245Z,101395.00
2023-04-18T23:49:22.088Z,101393.00
2023-04-18T23:51:49.804Z,101395.00
2023-04-18T23:54:18.633Z,101391.00
2023-04-18T23:56:46.137Z,101390.00
2023-04-18T23:59:14.074Z,101390.00
